イヌヴィック の空港の天気 - METARとTAF

イヌヴィック空港 ( CYEV / YEV ) - カナダ ノースウエスト準州イヌヴィック
飛行場実況気象(Metar)
観測時間04/25 00:00 MDT (04/25 06:00 UTC)
風向・風速南東 3m/s
視程10km以上
天気現象
全天の4割程度の雲 雲底高度 7620m
気温0℃
湿度69%
気圧1006.8hPa
METARCYEV 250600Z 14005KT 15SM SCT250 00/M05 A2971 RMK CI4 SLP068
過去の天気等 Google飛行場航空写真 Wunderground天気予報

過去48時間のMETAR

飛行場予報(TAF)
発表時間: 4/24 18:38 MDT (4/25 00:38 UTC)
予報対象時間: 24日19時 MDT ~ 25日7時 MDT
風向・風速南 4m/s
視程10km以上
なし
25日5時 MDT から
風向・風速南 5m/s
視程10km以上
全天の4割程度の雲 雲底高度 610m
全天の8割程度の雲 雲底高度 2,440m
25日5時 MDT から 確率 40% で
視程8,050m
天気現象弱い氷雨 もや
全天の8割程度の雲 雲底高度 610m
全天を覆う雲 雲底高度 1,830m
TAF CYEV 250038Z 2501/2513 17008KT P6SM SKC
FM251100 18010KT P6SM SCT020 BKN080
PROB40 2511/2513 5SM -FZRA BR BKN020 OVC060 RMK NXT FCST BY 250700Z